sensor_id;sensor_type;location;lat;lon;timestamp;P1;durP1;ratioP1;P2;durP2;ratioP2
51901;SDS011;37929;53.218;6.548;2023-04-24T00:00:08;5.57;;;3.75;;
51901;SDS011;37929;53.218;6.548;2023-04-24T00:02:34;4.75;;;3.53;;
51901;SDS011;37929;53.218;6.548;2023-04-24T00:05:03;4.63;;;3.78;;
51901;SDS011;37929;53.218;6.548;2023-04-24T00:07:30;5.43;;;3.75;;
51901;SDS011;37929;53.218;6.548;2023-04-24T00:09:56;6.63;;;3.92;;
51901;SDS011;37929;53.218;6.548;2023-04-24T00:12:22;6.20;;;4.63;;
51901;SDS011;37929;53.218;6.548;2023-04-24T00:14:47;9.10;;;4.63;;
51901;SDS011;37929;53.218;6.548;2023-04-24T00:17:13;6.35;;;4.60;;
51901;SDS011;37929;53.218;6.548;2023-04-24T00:19:39;9.45;;;4.95;;
51901;SDS011;37929;53.218;6.548;2023-04-24T00:22:05;6.35;;;4.53;;
51901;SDS011;37929;53.218;6.548;2023-04-24T00:24:31;10.00;;;5.40;;
51901;SDS011;37929;53.218;6.548;2023-04-24T00:26:59;6.68;;;4.90;;
51901;SDS011;37929;53.218;6.548;2023-04-24T00:29:26;7.30;;;5.18;;
51901;SDS011;37929;53.218;6.548;2023-04-24T00:31:53;8.15;;;5.38;;
51901;SDS011;37929;53.218;6.548;2023-04-24T00:34:19;8.07;;;5.50;;
51901;SDS011;37929;53.218;6.548;2023-04-24T00:36:47;6.72;;;4.72;;
51901;SDS011;37929;53.218;6.548;2023-04-24T00:39:15;5.80;;;4.13;;
51901;SDS011;37929;53.218;6.548;2023-04-24T00:41:41;5.47;;;4.00;;
51901;SDS011;37929;53.218;6.548;2023-04-24T00:44:07;5.13;;;3.47;;
51901;SDS011;37929;53.218;6.548;2023-04-24T00:46:33;5.28;;;3.40;;
51901;SDS011;37929;53.218;6.548;2023-04-24T00:48:59;5.22;;;3.15;;
51901;SDS011;37929;53.218;6.548;2023-04-24T00:51:25;3.55;;;2.65;;
51901;SDS011;37929;53.218;6.548;2023-04-24T00:53:50;3.45;;;2.20;;
51901;SDS011;37929;53.218;6.548;2023-04-24T00:56:17;2.85;;;2.00;;
51901;SDS011;37929;53.218;6.548;2023-04-24T00:58:43;11.27;;;6.60;;
51901;SDS011;37929;53.218;6.548;2023-04-24T01:01:09;3.25;;;1.95;;
51901;SDS011;37929;53.218;6.548;2023-04-24T01:03:36;2.50;;;1.85;;
51901;SDS011;37929;53.218;6.548;2023-04-24T01:06:03;3.38;;;1.77;;
51901;SDS011;37929;53.218;6.548;2023-04-24T01:08:30;2.25;;;1.75;;
51901;SDS011;37929;53.218;6.548;2023-04-24T01:10:56;2.85;;;1.80;;
51901;SDS011;37929;53.218;6.548;2023-04-24T01:13:22;2.33;;;1.73;;
51901;SDS011;37929;53.218;6.548;2023-04-24T01:15:48;2.17;;;1.83;;
51901;SDS011;37929;53.218;6.548;2023-04-24T01:18:14;2.20;;;1.50;;
51901;SDS011;37929;53.218;6.548;2023-04-24T01:20:41;2.50;;;1.60;;
51901;SDS011;37929;53.218;6.548;2023-04-24T01:23:09;2.10;;;1.60;;
51901;SDS011;37929;53.218;6.548;2023-04-24T01:25:36;1.88;;;1.55;;
51901;SDS011;37929;53.218;6.548;2023-04-24T01:28:02;2.13;;;1.45;;
51901;SDS011;37929;53.218;6.548;2023-04-24T01:30:29;2.75;;;1.85;;
51901;SDS011;37929;53.218;6.548;2023-04-24T01:32:55;2.80;;;1.85;;
51901;SDS011;37929;53.218;6.548;2023-04-24T01:35:21;2.38;;;1.90;;
51901;SDS011;37929;53.218;6.548;2023-04-24T01:37:47;2.63;;;2.00;;
51901;SDS011;37929;53.218;6.548;2023-04-24T01:40:12;2.58;;;1.80;;
51901;SDS011;37929;53.218;6.548;2023-04-24T01:42:38;2.50;;;2.05;;
51901;SDS011;37929;53.218;6.548;2023-04-24T01:45:06;2.90;;;1.98;;
51901;SDS011;37929;53.218;6.548;2023-04-24T01:47:36;2.67;;;2.08;;
51901;SDS011;37929;53.218;6.548;2023-04-24T01:50:03;2.30;;;1.88;;
51901;SDS011;37929;53.218;6.548;2023-04-24T01:52:29;3.22;;;2.10;;
51901;SDS011;37929;53.218;6.548;2023-04-24T01:54:59;2.67;;;1.85;;
51901;SDS011;37929;53.218;6.548;2023-04-24T01:57:25;2.95;;;2.20;;
51901;SDS011;37929;53.218;6.548;2023-04-24T01:59:51;3.42;;;2.60;;
51901;SDS011;37929;53.218;6.548;2023-04-24T02:02:17;3.20;;;2.47;;
51901;SDS011;37929;53.218;6.548;2023-04-24T02:04:42;3.10;;;2.60;;
51901;SDS011;37929;53.218;6.548;2023-04-24T02:07:08;3.03;;;2.50;;
51901;SDS011;37929;53.218;6.548;2023-04-24T02:09:34;5.22;;;3.15;;
51901;SDS011;37929;53.218;6.548;2023-04-24T02:12:00;3.45;;;2.88;;
51901;SDS011;37929;53.218;6.548;2023-04-24T02:14:25;3.63;;;2.67;;
51901;SDS011;37929;53.218;6.548;2023-04-24T02:16:51;3.65;;;3.20;;
51901;SDS011;37929;53.218;6.548;2023-04-24T02:19:18;4.93;;;3.42;;
51901;SDS011;37929;53.218;6.548;2023-04-24T02:21:44;4.28;;;3.28;;
51901;SDS011;37929;53.218;6.548;2023-04-24T02:24:10;5.30;;;3.63;;
51901;SDS011;37929;53.218;6.548;2023-04-24T02:26:36;5.72;;;3.58;;
51901;SDS011;37929;53.218;6.548;2023-04-24T02:29:01;5.65;;;3.92;;
51901;SDS011;37929;53.218;6.548;2023-04-24T02:31:27;5.40;;;3.95;;
51901;SDS011;37929;53.218;6.548;2023-04-24T02:33:53;5.30;;;3.88;;
51901;SDS011;37929;53.218;6.548;2023-04-24T02:36:22;6.70;;;4.38;;
51901;SDS011;37929;53.218;6.548;2023-04-24T02:38:47;4.93;;;3.97;;
51901;SDS011;37929;53.218;6.548;2023-04-24T02:41:13;5.57;;;4.03;;
51901;SDS011;37929;53.218;6.548;2023-04-24T02:43:39;5.32;;;4.25;;
51901;SDS011;37929;53.218;6.548;2023-04-24T02:46:05;5.70;;;4.25;;
51901;SDS011;37929;53.218;6.548;2023-04-24T02:48:30;6.72;;;4.65;;
51901;SDS011;37929;53.218;6.548;2023-04-24T02:50:56;7.88;;;4.72;;
51901;SDS011;37929;53.218;6.548;2023-04-24T02:53:22;7.45;;;4.93;;
51901;SDS011;37929;53.218;6.548;2023-04-24T02:55:48;8.65;;;4.45;;
51901;SDS011;37929;53.218;6.548;2023-04-24T02:58:14;6.45;;;4.60;;
51901;SDS011;37929;53.218;6.548;2023-04-24T03:00:40;6.10;;;4.47;;
51901;SDS011;37929;53.218;6.548;2023-04-24T03:03:06;12.52;;;8.77;;
51901;SDS011;37929;53.218;6.548;2023-04-24T03:05:32;6.95;;;5.13;;
51901;SDS011;37929;53.218;6.548;2023-04-24T03:07:57;9.43;;;5.20;;
51901;SDS011;37929;53.218;6.548;2023-04-24T03:10:23;6.97;;;5.20;;
51901;SDS011;37929;53.218;6.548;2023-04-24T03:12:49;8.18;;;5.20;;
51901;SDS011;37929;53.218;6.548;2023-04-24T03:15:15;9.25;;;4.72;;
51901;SDS011;37929;53.218;6.548;2023-04-24T03:17:41;7.80;;;5.60;;
51901;SDS011;37929;53.218;6.548;2023-04-24T03:20:07;8.05;;;5.43;;
51901;SDS011;37929;53.218;6.548;2023-04-24T03:22:33;7.85;;;5.55;;
51901;SDS011;37929;53.218;6.548;2023-04-24T03:24:59;9.85;;;6.55;;
51901;SDS011;37929;53.218;6.548;2023-04-24T03:27:26;8.48;;;5.85;;
51901;SDS011;37929;53.218;6.548;2023-04-24T03:29:52;8.93;;;6.07;;
51901;SDS011;37929;53.218;6.548;2023-04-24T03:32:20;8.52;;;5.95;;
51901;SDS011;37929;53.218;6.548;2023-04-24T03:34:47;8.93;;;6.25;;
51901;SDS011;37929;53.218;6.548;2023-04-24T03:37:14;11.68;;;7.25;;
51901;SDS011;37929;53.218;6.548;2023-04-24T03:39:40;11.65;;;7.30;;
51901;SDS011;37929;53.218;6.548;2023-04-24T03:42:06;11.50;;;7.20;;
51901;SDS011;37929;53.218;6.548;2023-04-24T03:44:33;13.55;;;8.20;;
51901;SDS011;37929;53.218;6.548;2023-04-24T03:46:59;12.32;;;8.45;;
51901;SDS011;37929;53.218;6.548;2023-04-24T03:49:25;14.32;;;9.68;;
51901;SDS011;37929;53.218;6.548;2023-04-24T03:51:51;16.40;;;10.45;;
51901;SDS011;37929;53.218;6.548;2023-04-24T03:54:17;14.60;;;10.27;;
51901;SDS011;37929;53.218;6.548;2023-04-24T03:56:44;17.63;;;10.73;;
51901;SDS011;37929;53.218;6.548;2023-04-24T03:59:09;16.63;;;10.77;;
51901;SDS011;37929;53.218;6.548;2023-04-24T04:01:35;18.90;;;11.95;;
51901;SDS011;37929;53.218;6.548;2023-04-24T04:04:05;16.13;;;10.65;;
51901;SDS011;37929;53.218;6.548;2023-04-24T04:06:31;14.07;;;10.00;;
51901;SDS011;37929;53.218;6.548;2023-04-24T04:08:57;15.77;;;10.95;;
51901;SDS011;37929;53.218;6.548;2023-04-24T04:11:24;15.02;;;11.00;;
51901;SDS011;37929;53.218;6.548;2023-04-24T04:13:49;15.40;;;10.13;;
51901;SDS011;37929;53.218;6.548;2023-04-24T04:16:16;16.77;;;10.90;;
51901;SDS011;37929;53.218;6.548;2023-04-24T04:18:45;16.42;;;11.40;;
51901;SDS011;37929;53.218;6.548;2023-04-24T04:21:10;15.13;;;10.43;;
51901;SDS011;37929;53.218;6.548;2023-04-24T04:23:36;15.25;;;10.80;;
51901;SDS011;37929;53.218;6.548;2023-04-24T04:26:03;14.68;;;10.15;;
51901;SDS011;37929;53.218;6.548;2023-04-24T04:28:29;14.35;;;10.00;;
51901;SDS011;37929;53.218;6.548;2023-04-24T04:30:59;13.05;;;9.45;;
51901;SDS011;37929;53.218;6.548;2023-04-24T04:33:26;12.40;;;9.52;;
51901;SDS011;37929;53.218;6.548;2023-04-24T04:35:52;11.98;;;9.02;;
51901;SDS011;37929;53.218;6.548;2023-04-24T04:38:18;12.88;;;9.50;;
51901;SDS011;37929;53.218;6.548;2023-04-24T04:40:44;12.93;;;9.68;;
51901;SDS011;37929;53.218;6.548;2023-04-24T04:43:11;13.43;;;9.57;;
51901;SDS011;37929;53.218;6.548;2023-04-24T04:45:39;13.95;;;8.50;;
51901;SDS011;37929;53.218;6.548;2023-04-24T04:48:08;13.02;;;9.13;;
51901;SDS011;37929;53.218;6.548;2023-04-24T04:50:37;13.15;;;9.30;;
51901;SDS011;37929;53.218;6.548;2023-04-24T04:53:02;14.20;;;8.52;;
51901;SDS011;37929;53.218;6.548;2023-04-24T04:55:28;12.18;;;8.98;;
51901;SDS011;37929;53.218;6.548;2023-04-24T04:57:55;10.88;;;7.63;;
51901;SDS011;37929;53.218;6.548;2023-04-24T05:00:21;11.27;;;8.52;;
51901;SDS011;37929;53.218;6.548;2023-04-24T05:02:49;8.45;;;6.35;;
51901;SDS011;37929;53.218;6.548;2023-04-24T05:05:15;8.23;;;5.95;;
51901;SDS011;37929;53.218;6.548;2023-04-24T05:07:42;6.70;;;4.13;;
51901;SDS011;37929;53.218;6.548;2023-04-24T05:10:08;7.07;;;4.45;;
51901;SDS011;37929;53.218;6.548;2023-04-24T05:12:34;6.15;;;4.32;;
51901;SDS011;37929;53.218;6.548;2023-04-24T05:14:59;6.15;;;4.38;;
51901;SDS011;37929;53.218;6.548;2023-04-24T05:17:25;9.18;;;6.28;;
51901;SDS011;37929;53.218;6.548;2023-04-24T05:19:51;6.82;;;4.90;;
51901;SDS011;37929;53.218;6.548;2023-04-24T05:22:17;6.78;;;4.80;;
51901;SDS011;37929;53.218;6.548;2023-04-24T05:24:45;7.55;;;4.25;;
51901;SDS011;37929;53.218;6.548;2023-04-24T05:27:12;7.72;;;4.30;;
51901;SDS011;37929;53.218;6.548;2023-04-24T05:29:40;7.40;;;4.60;;
51901;SDS011;37929;53.218;6.548;2023-04-24T05:32:06;5.68;;;4.13;;
51901;SDS011;37929;53.218;6.548;2023-04-24T05:34:32;6.00;;;4.30;;
51901;SDS011;37929;53.218;6.548;2023-04-24T05:36:57;8.85;;;4.60;;
51901;SDS011;37929;53.218;6.548;2023-04-24T05:39:23;8.95;;;5.35;;
51901;SDS011;37929;53.218;6.548;2023-04-24T05:41:50;7.57;;;4.47;;
51901;SDS011;37929;53.218;6.548;2023-04-24T05:44:16;7.10;;;4.70;;
51901;SDS011;37929;53.218;6.548;2023-04-24T05:46:42;7.00;;;3.88;;
51901;SDS011;37929;53.218;6.548;2023-04-24T05:49:07;6.03;;;3.60;;
51901;SDS011;37929;53.218;6.548;2023-04-24T05:51:33;5.55;;;3.60;;
51901;SDS011;37929;53.218;6.548;2023-04-24T05:53:59;4.38;;;3.20;;
51901;SDS011;37929;53.218;6.548;2023-04-24T05:56:26;5.90;;;3.47;;
51901;SDS011;37929;53.218;6.548;2023-04-24T05:58:51;4.38;;;3.10;;
51901;SDS011;37929;53.218;6.548;2023-04-24T06:01:17;5.78;;;3.35;;
51901;SDS011;37929;53.218;6.548;2023-04-24T06:03:43;4.35;;;2.92;;
51901;SDS011;37929;53.218;6.548;2023-04-24T06:06:12;5.63;;;3.90;;
51901;SDS011;37929;53.218;6.548;2023-04-24T06:08:38;7.38;;;4.93;;
51901;SDS011;37929;53.218;6.548;2023-04-24T06:11:04;7.45;;;4.00;;
51901;SDS011;37929;53.218;6.548;2023-04-24T06:13:29;9.98;;;4.45;;
51901;SDS011;37929;53.218;6.548;2023-04-24T06:15:55;5.13;;;3.70;;
51901;SDS011;37929;53.218;6.548;2023-04-24T06:18:21;6.32;;;3.83;;
51901;SDS011;37929;53.218;6.548;2023-04-24T06:20:47;5.82;;;4.18;;
51901;SDS011;37929;53.218;6.548;2023-04-24T06:23:13;6.53;;;4.18;;
51901;SDS011;37929;53.218;6.548;2023-04-24T06:25:38;5.57;;;4.05;;
51901;SDS011;37929;53.218;6.548;2023-04-24T06:28:04;8.43;;;4.85;;
51901;SDS011;37929;53.218;6.548;2023-04-24T06:30:30;8.85;;;5.35;;
51901;SDS011;37929;53.218;6.548;2023-04-24T06:32:56;8.68;;;5.45;;
51901;SDS011;37929;53.218;6.548;2023-04-24T06:35:22;7.72;;;5.30;;
51901;SDS011;37929;53.218;6.548;2023-04-24T06:37:48;7.50;;;5.65;;
51901;SDS011;37929;53.218;6.548;2023-04-24T06:40:14;7.85;;;5.53;;
51901;SDS011;37929;53.218;6.548;2023-04-24T06:42:40;7.07;;;4.75;;
51901;SDS011;37929;53.218;6.548;2023-04-24T06:45:06;7.78;;;5.18;;
51901;SDS011;37929;53.218;6.548;2023-04-24T06:47:32;10.52;;;6.68;;
51901;SDS011;37929;53.218;6.548;2023-04-24T06:49:58;7.57;;;5.60;;
51901;SDS011;37929;53.218;6.548;2023-04-24T06:52:23;9.35;;;5.72;;
51901;SDS011;37929;53.218;6.548;2023-04-24T06:54:49;7.80;;;4.60;;
51901;SDS011;37929;53.218;6.548;2023-04-24T06:57:15;16.65;;;8.93;;
51901;SDS011;37929;53.218;6.548;2023-04-24T06:59:41;8.60;;;4.43;;
51901;SDS011;37929;53.218;6.548;2023-04-24T07:02:07;7.13;;;4.35;;
51901;SDS011;37929;53.218;6.548;2023-04-24T07:04:33;9.65;;;4.60;;
51901;SDS011;37929;53.218;6.548;2023-04-24T07:06:59;5.05;;;3.17;;
51901;SDS011;37929;53.218;6.548;2023-04-24T07:09:26;5.75;;;3.65;;
51901;SDS011;37929;53.218;6.548;2023-04-24T07:11:52;5.30;;;3.25;;
51901;SDS011;37929;53.218;6.548;2023-04-24T07:14:18;5.60;;;2.88;;
51901;SDS011;37929;53.218;6.548;2023-04-24T07:16:44;6.53;;;2.55;;
51901;SDS011;37929;53.218;6.548;2023-04-24T07:19:10;3.67;;;2.40;;
51901;SDS011;37929;53.218;6.548;2023-04-24T07:21:37;3.15;;;2.20;;
51901;SDS011;37929;53.218;6.548;2023-04-24T07:24:03;2.83;;;2.30;;
51901;SDS011;37929;53.218;6.548;2023-04-24T07:26:29;3.13;;;2.20;;
51901;SDS011;37929;53.218;6.548;2023-04-24T07:28:56;4.43;;;2.50;;
51901;SDS011;37929;53.218;6.548;2023-04-24T07:31:22;4.70;;;2.53;;
51901;SDS011;37929;53.218;6.548;2023-04-24T07:33:48;8.35;;;3.80;;
51901;SDS011;37929;53.218;6.548;2023-04-24T07:36:14;6.10;;;2.97;;
51901;SDS011;37929;53.218;6.548;2023-04-24T07:38:44;6.50;;;4.32;;
51901;SDS011;37929;53.218;6.548;2023-04-24T07:41:10;3.97;;;3.03;;
51901;SDS011;37929;53.218;6.548;2023-04-24T07:43:37;6.55;;;3.50;;
51901;SDS011;37929;53.218;6.548;2023-04-24T07:46:03;7.28;;;4.82;;
51901;SDS011;37929;53.218;6.548;2023-04-24T07:48:28;4.85;;;3.05;;
51901;SDS011;37929;53.218;6.548;2023-04-24T07:50:54;4.75;;;2.60;;
51901;SDS011;37929;53.218;6.548;2023-04-24T07:53:20;7.38;;;2.67;;
51901;SDS011;37929;53.218;6.548;2023-04-24T07:55:46;6.38;;;3.40;;
51901;SDS011;37929;53.218;6.548;2023-04-24T07:58:12;5.82;;;3.72;;
51901;SDS011;37929;53.218;6.548;2023-04-24T08:00:38;7.18;;;4.43;;
51901;SDS011;37929;53.218;6.548;2023-04-24T08:03:03;10.13;;;5.25;;
51901;SDS011;37929;53.218;6.548;2023-04-24T08:05:29;8.70;;;5.53;;
51901;SDS011;37929;53.218;6.548;2023-04-24T08:07:55;13.10;;;6.10;;
51901;SDS011;37929;53.218;6.548;2023-04-24T08:10:21;11.98;;;6.80;;
51901;SDS011;37929;53.218;6.548;2023-04-24T08:12:48;12.32;;;8.10;;
51901;SDS011;37929;53.218;6.548;2023-04-24T08:15:14;15.15;;;7.80;;
51901;SDS011;37929;53.218;6.548;2023-04-24T08:17:40;12.48;;;7.28;;
51901;SDS011;37929;53.218;6.548;2023-04-24T08:20:06;12.07;;;7.30;;
51901;SDS011;37929;53.218;6.548;2023-04-24T08:22:38;13.68;;;8.10;;
51901;SDS011;37929;53.218;6.548;2023-04-24T08:25:07;15.25;;;8.85;;
51901;SDS011;37929;53.218;6.548;2023-04-24T08:27:34;13.18;;;7.93;;
51901;SDS011;37929;53.218;6.548;2023-04-24T08:30:02;17.05;;;8.68;;
51901;SDS011;37929;53.218;6.548;2023-04-24T08:32:28;18.70;;;10.68;;
51901;SDS011;37929;53.218;6.548;2023-04-24T08:34:55;18.65;;;10.52;;
51901;SDS011;37929;53.218;6.548;2023-04-24T08:37:25;21.05;;;9.43;;
51901;SDS011;37929;53.218;6.548;2023-04-24T08:39:52;16.88;;;8.77;;
51901;SDS011;37929;53.218;6.548;2023-04-24T08:42:18;16.25;;;9.27;;
51901;SDS011;37929;53.218;6.548;2023-04-24T08:44:45;15.60;;;8.70;;
51901;SDS011;37929;53.218;6.548;2023-04-24T08:47:13;16.50;;;8.25;;
51901;SDS011;37929;53.218;6.548;2023-04-24T08:49:40;14.85;;;9.27;;
51901;SDS011;37929;53.218;6.548;2023-04-24T08:52:06;15.35;;;8.48;;
51901;SDS011;37929;53.218;6.548;2023-04-24T08:54:35;15.77;;;8.45;;
51901;SDS011;37929;53.218;6.548;2023-04-24T08:57:02;11.60;;;7.40;;
51901;SDS011;37929;53.218;6.548;2023-04-24T08:59:31;13.07;;;8.13;;
51901;SDS011;37929;53.218;6.548;2023-04-24T09:01:57;11.63;;;7.40;;
51901;SDS011;37929;53.218;6.548;2023-04-24T09:04:24;11.38;;;7.53;;
51901;SDS011;37929;53.218;6.548;2023-04-24T09:06:52;13.85;;;8.38;;
51901;SDS011;37929;53.218;6.548;2023-04-24T09:09:21;17.42;;;9.18;;
51901;SDS011;37929;53.218;6.548;2023-04-24T09:11:51;16.00;;;9.48;;
51901;SDS011;37929;53.218;6.548;2023-04-24T09:14:19;16.17;;;9.23;;
51901;SDS011;37929;53.218;6.548;2023-04-24T09:16:45;18.95;;;9.63;;
51901;SDS011;37929;53.218;6.548;2023-04-24T09:19:11;15.45;;;9.77;;
51901;SDS011;37929;53.218;6.548;2023-04-24T09:21:38;15.63;;;8.90;;
51901;SDS011;37929;53.218;6.548;2023-04-24T09:24:05;14.45;;;8.02;;
51901;SDS011;37929;53.218;6.548;2023-04-24T09:26:34;11.73;;;7.18;;
51901;SDS011;37929;53.218;6.548;2023-04-24T09:29:01;12.57;;;6.70;;
51901;SDS011;37929;53.218;6.548;2023-04-24T09:31:28;12.95;;;6.57;;
51901;SDS011;37929;53.218;6.548;2023-04-24T09:33:55;11.52;;;6.53;;
51901;SDS011;37929;53.218;6.548;2023-04-24T09:38:59;14.80;;;7.03;;
51901;SDS011;37929;53.218;6.548;2023-04-24T09:41:26;12.73;;;6.97;;
51901;SDS011;37929;53.218;6.548;2023-04-24T09:43:54;10.93;;;7.03;;
51901;SDS011;37929;53.218;6.548;2023-04-24T09:46:20;12.32;;;7.25;;
51901;SDS011;37929;53.218;6.548;2023-04-24T09:48:53;11.27;;;6.20;;
51901;SDS011;37929;53.218;6.548;2023-04-24T09:51:19;12.88;;;6.07;;
51901;SDS011;37929;53.218;6.548;2023-04-24T09:54:02;11.38;;;5.95;;
51901;SDS011;37929;53.218;6.548;2023-04-24T09:56:32;13.60;;;5.38;;
51901;SDS011;37929;53.218;6.548;2023-04-24T09:59:04;8.95;;;4.90;;
51901;SDS011;37929;53.218;6.548;2023-04-24T10:01:33;11.13;;;5.55;;
51901;SDS011;37929;53.218;6.548;2023-04-24T10:03:59;13.52;;;5.38;;
51901;SDS011;37929;53.218;6.548;2023-04-24T10:06:34;9.70;;;5.45;;
51901;SDS011;37929;53.218;6.548;2023-04-24T10:09:01;8.77;;;4.90;;
51901;SDS011;37929;53.218;6.548;2023-04-24T10:11:27;8.73;;;5.00;;
51901;SDS011;37929;53.218;6.548;2023-04-24T10:13:53;8.77;;;4.88;;
51901;SDS011;37929;53.218;6.548;2023-04-24T10:16:20;7.68;;;4.28;;
51901;SDS011;37929;53.218;6.548;2023-04-24T10:18:52;9.57;;;3.47;;
51901;SDS011;37929;53.218;6.548;2023-04-24T10:21:18;6.72;;;3.45;;
51901;SDS011;37929;53.218;6.548;2023-04-24T10:23:44;6.90;;;3.72;;
51901;SDS011;37929;53.218;6.548;2023-04-24T10:26:12;7.55;;;3.60;;
51901;SDS011;37929;53.218;6.548;2023-04-24T10:28:46;7.18;;;3.25;;
51901;SDS011;37929;53.218;6.548;2023-04-24T10:31:16;9.07;;;4.15;;
51901;SDS011;37929;53.218;6.548;2023-04-24T10:33:43;5.85;;;3.08;;
51901;SDS011;37929;53.218;6.548;2023-04-24T10:36:12;5.72;;;3.30;;
51901;SDS011;37929;53.218;6.548;2023-04-24T10:38:40;5.07;;;2.92;;
51901;SDS011;37929;53.218;6.548;2023-04-24T10:41:10;5.85;;;3.33;;
51901;SDS011;37929;53.218;6.548;2023-04-24T10:43:45;5.50;;;3.38;;
51901;SDS011;37929;53.218;6.548;2023-04-24T10:46:16;6.30;;;3.28;;
51901;SDS011;37929;53.218;6.548;2023-04-24T10:48:52;6.07;;;2.63;;
51901;SDS011;37929;53.218;6.548;2023-04-24T10:51:24;5.80;;;2.58;;
51901;SDS011;37929;53.218;6.548;2023-04-24T11:00:10;8.25;;;3.03;;
51901;SDS011;37929;53.218;6.548;2023-04-24T11:02:39;6.57;;;2.67;;
51901;SDS011;37929;53.218;6.548;2023-04-24T11:05:14;4.53;;;2.42;;
51901;SDS011;37929;53.218;6.548;2023-04-24T11:10:41;5.18;;;2.60;;
51901;SDS011;37929;53.218;6.548;2023-04-24T11:13:14;5.32;;;2.45;;
51901;SDS011;37929;53.218;6.548;2023-04-24T11:15:46;4.43;;;2.30;;
51901;SDS011;37929;53.218;6.548;2023-04-24T11:18:49;6.22;;;2.60;;
51901;SDS011;37929;53.218;6.548;2023-04-24T11:21:19;4.78;;;2.53;;
51901;SDS011;37929;53.218;6.548;2023-04-24T11:23:46;12.15;;;2.72;;
51901;SDS011;37929;53.218;6.548;2023-04-24T11:26:12;6.57;;;2.10;;
51901;SDS011;37929;53.218;6.548;2023-04-24T11:28:55;3.33;;;1.73;;
51901;SDS011;37929;53.218;6.548;2023-04-24T11:31:41;7.03;;;2.47;;
51901;SDS011;37929;53.218;6.548;2023-04-24T11:34:17;5.10;;;2.00;;
51901;SDS011;37929;53.218;6.548;2023-04-24T11:36:43;7.22;;;3.05;;
51901;SDS011;37929;53.218;6.548;2023-04-24T11:39:10;7.70;;;2.47;;
51901;SDS011;37929;53.218;6.548;2023-04-24T11:41:37;8.07;;;2.80;;
51901;SDS011;37929;53.218;6.548;2023-04-24T11:44:05;4.75;;;1.85;;
51901;SDS011;37929;53.218;6.548;2023-04-24T11:46:32;8.55;;;2.70;;
51901;SDS011;37929;53.218;6.548;2023-04-24T11:48:58;3.85;;;1.75;;
51901;SDS011;37929;53.218;6.548;2023-04-24T11:51:27;8.00;;;2.25;;
51901;SDS011;37929;53.218;6.548;2023-04-24T11:53:55;5.60;;;2.17;;
51901;SDS011;37929;53.218;6.548;2023-04-24T11:56:21;6.90;;;1.90;;
51901;SDS011;37929;53.218;6.548;2023-04-24T11:58:47;5.38;;;1.80;;
51901;SDS011;37929;53.218;6.548;2023-04-24T12:01:13;3.60;;;1.50;;
51901;SDS011;37929;53.218;6.548;2023-04-24T12:03:39;8.77;;;2.30;;
51901;SDS011;37929;53.218;6.548;2023-04-24T12:06:09;4.03;;;1.90;;
51901;SDS011;37929;53.218;6.548;2023-04-24T12:08:36;6.57;;;2.38;;
51901;SDS011;37929;53.218;6.548;2023-04-24T12:11:03;3.00;;;1.60;;
51901;SDS011;37929;53.218;6.548;2023-04-24T12:13:32;4.30;;;1.67;;
51901;SDS011;37929;53.218;6.548;2023-04-24T12:15:59;3.85;;;1.77;;
51901;SDS011;37929;53.218;6.548;2023-04-24T12:18:27;4.70;;;2.20;;
51901;SDS011;37929;53.218;6.548;2023-04-24T12:20:52;4.80;;;1.88;;
51901;SDS011;37929;53.218;6.548;2023-04-24T12:23:33;4.75;;;1.60;;
51901;SDS011;37929;53.218;6.548;2023-04-24T12:26:06;3.47;;;2.13;;
51901;SDS011;37929;53.218;6.548;2023-04-24T12:28:35;3.85;;;1.80;;
51901;SDS011;37929;53.218;6.548;2023-04-24T12:31:01;6.72;;;1.65;;
51901;SDS011;37929;53.218;6.548;2023-04-24T12:33:27;3.42;;;1.77;;
51901;SDS011;37929;53.218;6.548;2023-04-24T12:35:57;2.85;;;1.60;;
51901;SDS011;37929;53.218;6.548;2023-04-24T12:38:23;4.18;;;1.50;;
51901;SDS011;37929;53.218;6.548;2023-04-24T12:41:04;4.82;;;1.30;;
51901;SDS011;37929;53.218;6.548;2023-04-24T12:43:35;3.83;;;1.40;;
51901;SDS011;37929;53.218;6.548;2023-04-24T12:46:01;3.15;;;1.23;;
51901;SDS011;37929;53.218;6.548;2023-04-24T12:48:28;2.55;;;1.30;;
51901;SDS011;37929;53.218;6.548;2023-04-24T12:50:57;4.60;;;1.50;;
51901;SDS011;37929;53.218;6.548;2023-04-24T12:53:26;4.32;;;1.10;;
51901;SDS011;37929;53.218;6.548;2023-04-24T12:55:53;3.97;;;1.30;;
51901;SDS011;37929;53.218;6.548;2023-04-24T12:58:20;3.45;;;1.23;;
51901;SDS011;37929;53.218;6.548;2023-04-24T13:00:46;7.13;;;1.55;;
51901;SDS011;37929;53.218;6.548;2023-04-24T13:03:12;3.47;;;1.42;;
51901;SDS011;37929;53.218;6.548;2023-04-24T13:05:38;3.33;;;1.27;;
51901;SDS011;37929;53.218;6.548;2023-04-24T13:08:04;7.43;;;1.95;;
51901;SDS011;37929;53.218;6.548;2023-04-24T13:10:30;2.72;;;1.38;;
51901;SDS011;37929;53.218;6.548;2023-04-24T13:12:55;3.65;;;1.30;;
51901;SDS011;37929;53.218;6.548;2023-04-24T13:15:22;3.33;;;1.52;;
51901;SDS011;37929;53.218;6.548;2023-04-24T13:17:47;2.53;;;1.35;;
51901;SDS011;37929;53.218;6.548;2023-04-24T13:20:13;3.35;;;1.30;;
51901;SDS011;37929;53.218;6.548;2023-04-24T13:22:39;2.55;;;1.20;;
51901;SDS011;37929;53.218;6.548;2023-04-24T13:25:05;5.25;;;1.70;;
51901;SDS011;37929;53.218;6.548;2023-04-24T13:27:32;6.45;;;1.17;;
51901;SDS011;37929;53.218;6.548;2023-04-24T13:29:57;4.25;;;1.88;;
51901;SDS011;37929;53.218;6.548;2023-04-24T13:32:23;7.85;;;2.17;;
51901;SDS011;37929;53.218;6.548;2023-04-24T13:34:50;3.58;;;1.40;;
51901;SDS011;37929;53.218;6.548;2023-04-24T13:37:16;3.20;;;1.05;;
51901;SDS011;37929;53.218;6.548;2023-04-24T13:39:41;1.98;;;1.00;;
51901;SDS011;37929;53.218;6.548;2023-04-24T13:42:08;1.70;;;0.82;;
51901;SDS011;37929;53.218;6.548;2023-04-24T13:44:34;3.35;;;1.00;;
51901;SDS011;37929;53.218;6.548;2023-04-24T13:46:59;1.08;;;0.85;;
51901;SDS011;37929;53.218;6.548;2023-04-24T13:49:25;3.78;;;0.90;;
51901;SDS011;37929;53.218;6.548;2023-04-24T13:51:54;1.58;;;0.80;;
51901;SDS011;37929;53.218;6.548;2023-04-24T13:54:20;1.63;;;1.00;;
51901;SDS011;37929;53.218;6.548;2023-04-24T13:56:48;5.13;;;1.10;;
51901;SDS011;37929;53.218;6.548;2023-04-24T13:59:14;3.70;;;1.20;;
51901;SDS011;37929;53.218;6.548;2023-04-24T14:01:40;3.42;;;1.20;;
51901;SDS011;37929;53.218;6.548;2023-04-24T14:04:06;2.97;;;1.45;;
51901;SDS011;37929;53.218;6.548;2023-04-24T14:06:31;3.42;;;1.58;;
51901;SDS011;37929;53.218;6.548;2023-04-24T14:08:57;7.70;;;1.55;;
51901;SDS011;37929;53.218;6.548;2023-04-24T14:11:23;4.85;;;1.80;;
51901;SDS011;37929;53.218;6.548;2023-04-24T14:13:49;7.03;;;1.75;;
51901;SDS011;37929;53.218;6.548;2023-04-24T14:16:15;4.53;;;1.73;;
51901;SDS011;37929;53.218;6.548;2023-04-24T14:18:41;4.63;;;2.05;;
51901;SDS011;37929;53.218;6.548;2023-04-24T14:21:06;5.53;;;2.20;;
51901;SDS011;37929;53.218;6.548;2023-04-24T14:23:32;7.45;;;2.15;;
51901;SDS011;37929;53.218;6.548;2023-04-24T14:25:58;5.03;;;1.98;;
51901;SDS011;37929;53.218;6.548;2023-04-24T14:28:24;6.35;;;2.35;;
51901;SDS011;37929;53.218;6.548;2023-04-24T14:30:51;6.22;;;1.90;;
51901;SDS011;37929;53.218;6.548;2023-04-24T14:33:17;7.07;;;2.50;;
51901;SDS011;37929;53.218;6.548;2023-04-24T14:35:43;8.40;;;2.40;;
51901;SDS011;37929;53.218;6.548;2023-04-24T14:38:09;5.60;;;2.20;;
51901;SDS011;37929;53.218;6.548;2023-04-24T14:40:36;6.38;;;2.72;;
51901;SDS011;37929;53.218;6.548;2023-04-24T14:43:02;9.07;;;2.10;;
51901;SDS011;37929;53.218;6.548;2023-04-24T14:45:28;7.55;;;3.10;;
51901;SDS011;37929;53.218;6.548;2023-04-24T14:47:55;4.28;;;2.35;;
51901;SDS011;37929;53.218;6.548;2023-04-24T14:50:21;7.55;;;2.20;;
51901;SDS011;37929;53.218;6.548;2023-04-24T14:52:47;4.60;;;1.95;;